createdAt,value
2023-05-15T00:00:18.834Z,16.07
2023-05-15T00:02:51.815Z,16.01
2023-05-15T00:05:24.627Z,15.96
2023-05-15T00:07:57.697Z,15.95
2023-05-15T00:10:30.329Z,15.92
2023-05-15T00:13:04.566Z,15.87
2023-05-15T00:15:37.346Z,15.82
2023-05-15T00:18:10.132Z,15.80
2023-05-15T00:20:42.945Z,15.72
2023-05-15T00:23:16.037Z,15.75
2023-05-15T00:25:48.896Z,15.75
2023-05-15T00:28:22.828Z,15.71
2023-05-15T00:30:55.703Z,15.70
2023-05-15T00:33:28.907Z,15.72
2023-05-15T00:36:01.670Z,15.73
2023-05-15T00:38:34.675Z,15.69
2023-05-15T00:41:11.707Z,15.64
2023-05-15T00:43:46.922Z,15.61
2023-05-15T00:46:22.371Z,15.59
2023-05-15T00:48:58.910Z,15.61
2023-05-15T00:51:31.754Z,15.57
2023-05-15T00:54:05.075Z,15.53
2023-05-15T00:56:38.378Z,15.51
2023-05-15T00:59:14.160Z,15.47
2023-05-15T01:01:46.938Z,15.37
2023-05-15T01:04:19.957Z,15.45
2023-05-15T01:06:56.521Z,15.37
2023-05-15T01:09:32.004Z,15.39
2023-05-15T01:12:08.433Z,15.33
2023-05-15T01:14:42.945Z,15.24
2023-05-15T01:17:15.730Z,15.26
2023-05-15T01:19:52.524Z,15.20
2023-05-15T01:22:45.758Z,15.15
2023-05-15T01:26:09.370Z,15.18
2023-05-15T01:28:47.703Z,15.09
2023-05-15T01:31:23.633Z,15.09
2023-05-15T01:34:03.987Z,15.12
2023-05-15T01:36:44.074Z,15.09
2023-05-15T01:39:24.145Z,15.12
2023-05-15T01:42:04.850Z,15.05
2023-05-15T01:44:44.461Z,15.06
2023-05-15T01:47:23.300Z,15.02
2023-05-15T01:49:58.483Z,14.99
2023-05-15T01:52:35.073Z,14.99
2023-05-15T01:55:10.969Z,14.97
2023-05-15T01:57:44.740Z,14.91
2023-05-15T02:00:21.532Z,14.91
2023-05-15T02:02:55.807Z,14.90
2023-05-15T02:05:30.431Z,14.88
2023-05-15T02:08:04.302Z,14.89
2023-05-15T02:10:37.545Z,14.86
2023-05-15T02:13:11.477Z,14.83
2023-05-15T02:15:45.704Z,14.87
2023-05-15T02:18:20.190Z,14.86
2023-05-15T02:20:53.141Z,14.86
2023-05-15T02:23:25.727Z,14.84
2023-05-15T02:26:12.119Z,14.78
2023-05-15T02:28:51.518Z,14.81
2023-05-15T02:31:32.803Z,14.81
2023-05-15T02:34:14.006Z,14.74
2023-05-15T02:36:50.823Z,14.77
2023-05-15T02:39:25.140Z,14.73
2023-05-15T02:41:59.032Z,14.75
2023-05-15T02:44:32.970Z,14.71
2023-05-15T02:47:08.751Z,14.71
2023-05-15T02:49:44.114Z,14.69
2023-05-15T02:52:19.215Z,14.71
2023-05-15T02:54:52.328Z,14.67
2023-05-15T02:57:25.447Z,14.69
2023-05-15T02:59:59.033Z,14.71
2023-05-15T03:02:33.638Z,14.67
2023-05-15T03:05:07.668Z,14.64
2023-05-15T03:07:41.512Z,14.82
2023-05-15T03:10:14.388Z,14.76
2023-05-15T03:12:47.114Z,14.82
2023-05-15T03:15:20.363Z,14.78
2023-05-15T03:17:54.632Z,14.78
2023-05-15T03:20:27.711Z,14.73
2023-05-15T03:23:00.860Z,14.76
2023-05-15T03:25:33.979Z,14.77
2023-05-15T03:28:06.637Z,14.71
2023-05-15T03:30:39.477Z,14.75
2023-05-15T03:33:13.634Z,14.69
2023-05-15T03:35:46.579Z,14.72
2023-05-15T03:38:21.517Z,14.66
2023-05-15T03:40:54.451Z,14.69
2023-05-15T03:43:27.124Z,14.70
2023-05-15T03:46:00.670Z,14.73
2023-05-15T03:48:34.975Z,14.70
2023-05-15T03:51:12.128Z,14.68
2023-05-15T03:53:44.995Z,14.71
2023-05-15T03:56:18.020Z,14.69
2023-05-15T03:58:50.872Z,14.73
2023-05-15T04:01:24.036Z,14.70
2023-05-15T04:03:58.388Z,14.73
2023-05-15T04:06:31.570Z,14.75
2023-05-15T04:09:04.866Z,14.76
2023-05-15T04:11:37.707Z,14.81
2023-05-15T04:14:10.963Z,14.79
2023-05-15T04:16:44.459Z,14.78
2023-05-15T04:19:20.845Z,14.67
2023-05-15T04:21:53.942Z,14.72
2023-05-15T04:24:26.749Z,14.77
2023-05-15T04:26:59.568Z,14.74
2023-05-15T04:29:32.499Z,14.73
2023-05-15T04:32:05.851Z,14.78
2023-05-15T04:34:40.915Z,14.77
2023-05-15T04:37:13.800Z,14.79
2023-05-15T04:39:46.413Z,14.79
2023-05-15T04:42:19.332Z,14.81
2023-05-15T04:44:52.131Z,14.78
2023-05-15T04:47:25.027Z,14.79
2023-05-15T04:49:59.402Z,14.82
2023-05-15T04:52:32.459Z,14.82
2023-05-15T04:55:06.279Z,14.82
2023-05-15T04:57:39.171Z,14.88
2023-05-15T05:00:14.399Z,14.81
2023-05-15T05:02:47.459Z,14.87
2023-05-15T05:05:22.147Z,14.90
2023-05-15T05:07:55.034Z,14.85
2023-05-15T05:10:30.440Z,14.84
2023-05-15T05:13:03.279Z,14.84
2023-05-15T05:15:37.343Z,14.91
2023-05-15T05:18:10.429Z,14.83
2023-05-15T05:20:44.425Z,14.83
2023-05-15T05:23:18.271Z,14.87
2023-05-15T05:25:51.079Z,14.82
2023-05-15T05:28:24.628Z,14.88
2023-05-15T05:30:57.493Z,14.85
2023-05-15T05:33:30.416Z,14.86
2023-05-15T05:36:05.232Z,14.86
2023-05-15T05:38:38.254Z,14.87
2023-05-15T05:41:10.885Z,14.92
2023-05-15T05:43:43.720Z,14.96
2023-05-15T05:46:16.618Z,15.01
2023-05-15T05:48:49.336Z,14.96
2023-05-15T05:51:23.561Z,14.92
2023-05-15T05:53:56.683Z,14.95
2023-05-15T05:56:29.816Z,15.04
2023-05-15T05:59:02.866Z,15.08
2023-05-15T06:01:35.773Z,15.03
2023-05-15T06:04:08.704Z,15.07
2023-05-15T06:06:42.694Z,15.07
2023-05-15T06:09:15.659Z,15.11
2023-05-15T06:11:48.385Z,15.08
2023-05-15T06:14:23.703Z,15.11
2023-05-15T06:16:56.703Z,15.14
2023-05-15T06:19:30.012Z,15.13
2023-05-15T06:22:04.742Z,15.19
2023-05-15T06:24:37.675Z,15.24
2023-05-15T06:27:10.402Z,15.27
2023-05-15T06:29:43.236Z,15.30
2023-05-15T06:32:16.035Z,15.33
2023-05-15T06:34:49.039Z,15.36
2023-05-15T06:37:26.052Z,15.39
2023-05-15T06:39:59.088Z,15.51
2023-05-15T06:42:32.350Z,15.60
2023-05-15T06:45:06.484Z,15.58
2023-05-15T06:47:39.471Z,15.58
2023-05-15T06:50:12.644Z,15.70
2023-05-15T06:52:47.115Z,15.72
2023-05-15T06:55:20.647Z,15.75
2023-05-15T06:57:54.191Z,15.73
2023-05-15T07:00:27.571Z,15.70
2023-05-15T07:03:00.373Z,15.71
2023-05-15T07:05:33.150Z,15.60
2023-05-15T07:08:09.685Z,15.74
2023-05-15T07:10:42.533Z,15.71
2023-05-15T07:13:17.864Z,15.73
2023-05-15T07:15:50.913Z,15.68
2023-05-15T07:18:24.015Z,15.78
2023-05-15T07:20:56.984Z,15.78
2023-05-15T07:23:32.263Z,15.76
2023-05-15T07:26:05.497Z,15.70
2023-05-15T07:28:38.346Z,15.78
2023-05-15T07:31:11.439Z,15.71
2023-05-15T07:33:44.328Z,15.74
2023-05-15T07:36:17.551Z,15.71
2023-05-15T07:38:51.856Z,15.69
2023-05-15T07:41:24.783Z,15.70
2023-05-15T07:43:57.692Z,15.72
2023-05-15T07:46:30.939Z,15.66
2023-05-15T07:49:04.384Z,15.70
2023-05-15T07:51:37.361Z,15.72
2023-05-15T07:54:11.489Z,15.72
2023-05-15T07:56:44.885Z,15.69
2023-05-15T07:59:20.117Z,15.71
2023-05-15T08:01:53.200Z,15.66
2023-05-15T08:04:25.938Z,15.64
2023-05-15T08:06:58.856Z,15.70
2023-05-15T08:09:32.996Z,15.68
2023-05-15T08:12:20.802Z,15.65
2023-05-15T08:14:55.685Z,15.71
2023-05-15T08:17:29.112Z,15.71
2023-05-15T08:20:02.020Z,15.76
2023-05-15T08:22:35.002Z,15.79
2023-05-15T08:25:10.885Z,15.72
2023-05-15T08:27:44.057Z,15.73
2023-05-15T08:30:18.209Z,15.81
2023-05-15T08:32:51.255Z,15.81
2023-05-15T08:35:25.392Z,15.98
2023-05-15T08:38:00.666Z,15.94
2023-05-15T08:40:39.596Z,16.14
2023-05-15T08:43:16.465Z,16.22
2023-05-15T08:45:50.687Z,16.29
2023-05-15T08:48:26.205Z,16.39
2023-05-15T08:51:01.596Z,16.53
2023-05-15T08:53:38.261Z,16.60
2023-05-15T08:56:15.634Z,16.70
2023-05-15T08:58:49.154Z,16.75
2023-05-15T09:01:22.823Z,16.79
2023-05-15T09:03:55.777Z,16.93
2023-05-15T09:06:29.168Z,17.04
2023-05-15T09:09:02.280Z,17.15
2023-05-15T09:11:37.895Z,17.22
2023-05-15T09:14:11.042Z,17.32
2023-05-15T09:16:44.561Z,17.41
2023-05-15T09:19:20.260Z,17.47
2023-05-15T09:21:53.238Z,17.53
2023-05-15T09:24:29.183Z,17.65
2023-05-15T09:27:06.785Z,17.76
2023-05-15T09:29:40.680Z,17.78
2023-05-15T09:32:15.606Z,17.83
2023-05-15T09:34:48.702Z,17.89
2023-05-15T09:37:38.964Z,17.92
2023-05-15T09:40:22.208Z,17.92
2023-05-15T09:42:56.500Z,18.00
2023-05-15T09:45:31.645Z,17.99
2023-05-15T09:48:07.032Z,17.90
2023-05-15T09:50:43.070Z,17.94
2023-05-15T09:53:21.423Z,17.93
2023-05-15T09:55:55.157Z,17.98
2023-05-15T09:58:29.548Z,17.92
2023-05-15T10:01:03.143Z,18.02
2023-05-15T10:03:39.991Z,18.07
2023-05-15T10:06:19.755Z,18.07
2023-05-15T10:08:54.255Z,18.11
2023-05-15T10:11:27.612Z,18.13
2023-05-15T10:14:05.086Z,18.18
2023-05-15T10:16:39.683Z,18.20
2023-05-15T10:19:14.110Z,18.29
2023-05-15T10:21:48.691Z,18.28
2023-05-15T10:24:22.997Z,18.33
2023-05-15T10:26:57.462Z,18.38
2023-05-15T10:29:33.315Z,18.34
2023-05-15T10:32:06.423Z,18.28
2023-05-15T10:34:40.252Z,18.33
2023-05-15T10:37:15.903Z,18.28
2023-05-15T10:39:50.495Z,18.23
2023-05-15T10:42:25.184Z,18.21
2023-05-15T10:45:02.645Z,18.09
2023-05-15T10:47:36.440Z,18.07
2023-05-15T10:50:11.060Z,17.99
2023-05-15T10:52:44.116Z,17.98
2023-05-15T10:55:20.548Z,17.97
2023-05-15T10:57:54.945Z,18.01
2023-05-15T11:00:31.625Z,17.98
2023-05-15T11:03:06.347Z,18.02
2023-05-15T11:06:10.746Z,18.06
2023-05-15T11:08:46.528Z,18.03
2023-05-15T11:11:58.150Z,18.00
2023-05-15T11:14:32.772Z,17.97
2023-05-15T11:17:09.302Z,17.99
2023-05-15T11:20:00.947Z,17.97
2023-05-15T11:22:36.127Z,18.02
2023-05-15T11:25:12.621Z,17.99
2023-05-15T11:27:46.654Z,17.96
2023-05-15T11:30:22.419Z,17.95
2023-05-15T11:33:01.619Z,17.79
2023-05-15T11:35:36.087Z,17.81
2023-05-15T11:38:13.932Z,17.79
2023-05-15T11:40:48.317Z,17.76
2023-05-15T11:43:24.762Z,17.67
2023-05-15T11:45:59.036Z,17.71
2023-05-15T11:48:34.806Z,17.60
2023-05-15T11:51:17.622Z,17.69
2023-05-15T11:53:52.140Z,17.67
2023-05-15T11:56:28.262Z,17.66
2023-05-15T11:59:02.407Z,17.60
2023-05-15T12:01:41.322Z,17.64
2023-05-15T12:04:16.937Z,17.68
2023-05-15T12:06:50.265Z,17.66
2023-05-15T12:09:27.258Z,17.61
2023-05-15T12:12:00.476Z,17.61
2023-05-15T12:14:33.947Z,17.65
2023-05-15T12:17:07.161Z,17.73
2023-05-15T12:19:42.159Z,17.78
2023-05-15T12:22:15.500Z,17.74
2023-05-15T12:24:48.741Z,17.82
2023-05-15T12:27:21.877Z,17.84
2023-05-15T12:29:55.485Z,17.84
2023-05-15T12:32:35.156Z,17.78
2023-05-15T12:35:11.755Z,17.75
2023-05-15T12:37:45.927Z,17.78
2023-05-15T12:40:21.982Z,17.77
2023-05-15T12:42:55.525Z,17.85
2023-05-15T12:45:28.886Z,17.81
2023-05-15T12:48:03.574Z,17.75
2023-05-15T12:50:37.806Z,17.69
2023-05-15T12:53:13.867Z,17.63
2023-05-15T12:55:47.739Z,17.55
2023-05-15T12:58:21.411Z,17.53
2023-05-15T13:00:54.882Z,17.45
2023-05-15T13:03:28.716Z,17.48
2023-05-15T13:06:03.673Z,17.36
2023-05-15T13:08:41.607Z,17.28
2023-05-15T13:11:15.434Z,17.34
2023-05-15T13:13:49.491Z,17.28
2023-05-15T13:16:29.477Z,17.25
2023-05-15T13:19:02.771Z,17.20
2023-05-15T13:21:37.398Z,17.09
2023-05-15T13:24:10.880Z,17.08
2023-05-15T13:26:43.852Z,17.08
2023-05-15T13:29:16.849Z,17.03
2023-05-15T13:31:49.898Z,17.02
2023-05-15T13:34:22.854Z,17.03
2023-05-15T13:36:57.111Z,16.97
2023-05-15T13:39:30.096Z,16.97
2023-05-15T13:42:02.942Z,16.93
2023-05-15T13:44:37.635Z,16.96
2023-05-15T13:47:13.727Z,16.98
2023-05-15T13:49:46.637Z,16.95
2023-05-15T13:52:20.776Z,16.94
2023-05-15T13:54:53.777Z,16.94
2023-05-15T13:57:26.710Z,16.97
2023-05-15T14:00:00.298Z,16.98
2023-05-15T14:02:33.290Z,17.01
2023-05-15T14:05:06.723Z,17.03
2023-05-15T14:07:41.195Z,17.03
2023-05-15T14:10:14.166Z,17.01
2023-05-15T14:12:47.150Z,17.03
2023-05-15T14:15:19.887Z,17.10
2023-05-15T14:17:54.740Z,17.07
2023-05-15T14:20:27.934Z,17.02
2023-05-15T14:23:02.150Z,17.02
2023-05-15T14:25:34.894Z,16.94
2023-05-15T14:28:07.727Z,16.91
2023-05-15T14:30:40.564Z,16.85
2023-05-15T14:33:13.568Z,16.84
2023-05-15T14:35:46.370Z,16.81
2023-05-15T14:38:21.830Z,16.85
2023-05-15T14:40:56.019Z,16.83
2023-05-15T14:43:29.478Z,16.84
2023-05-15T14:46:02.472Z,16.88
2023-05-15T14:48:35.322Z,16.85
2023-05-15T14:51:08.340Z,16.82
2023-05-15T14:53:43.069Z,16.79
2023-05-15T14:56:16.282Z,16.80
2023-05-15T14:58:49.071Z,16.80
2023-05-15T15:01:22.026Z,16.75
2023-05-15T15:03:54.642Z,16.71
2023-05-15T15:06:27.567Z,16.70
2023-05-15T15:09:01.783Z,16.65
2023-05-15T15:11:34.806Z,16.67
2023-05-15T15:14:07.768Z,16.68
2023-05-15T15:16:41.054Z,16.59
2023-05-15T15:19:14.168Z,16.60
2023-05-15T15:21:47.737Z,16.50
2023-05-15T15:24:22.361Z,16.56
2023-05-15T15:26:55.658Z,16.51
2023-05-15T15:29:28.519Z,16.45
2023-05-15T15:32:01.604Z,16.47
2023-05-15T15:34:34.274Z,16.47
2023-05-15T15:37:07.207Z,16.41
2023-05-15T15:39:41.334Z,16.38
2023-05-15T15:42:14.418Z,16.39
2023-05-15T15:44:47.225Z,16.36
2023-05-15T15:47:20.334Z,16.39
2023-05-15T15:50:00.908Z,16.36
2023-05-15T15:52:33.896Z,16.34
2023-05-15T15:55:10.096Z,16.31
2023-05-15T15:57:43.939Z,16.29
2023-05-15T16:00:20.753Z,16.21
2023-05-15T16:02:53.969Z,16.18
2023-05-15T16:05:26.948Z,16.24
2023-05-15T16:07:59.612Z,16.23
2023-05-15T16:10:33.826Z,16.10
2023-05-15T16:13:09.161Z,16.09
2023-05-15T16:15:41.976Z,16.10
2023-05-15T16:18:15.017Z,16.09
2023-05-15T16:20:48.735Z,16.07
2023-05-15T16:23:23.484Z,16.03
2023-05-15T16:25:57.748Z,16.00
2023-05-15T16:28:30.670Z,15.90
2023-05-15T16:31:04.378Z,15.94
2023-05-15T16:33:37.527Z,15.95
2023-05-15T16:36:10.484Z,15.92
2023-05-15T16:38:43.203Z,15.90
2023-05-15T16:41:18.656Z,15.83
2023-05-15T16:43:51.502Z,15.87
2023-05-15T16:46:24.209Z,15.81
2023-05-15T16:48:57.485Z,15.85
2023-05-15T16:51:31.587Z,15.82
2023-05-15T16:54:04.661Z,15.77
2023-05-15T16:56:38.875Z,15.78
2023-05-15T16:59:11.887Z,15.74
2023-05-15T17:01:44.846Z,15.71
2023-05-15T17:04:17.802Z,15.71
2023-05-15T17:06:50.869Z,15.71
2023-05-15T17:09:28.404Z,15.73
2023-05-15T17:12:04.883Z,15.66
2023-05-15T17:14:37.777Z,15.60
2023-05-15T17:17:10.630Z,15.48
2023-05-15T17:19:45.425Z,15.58
2023-05-15T17:22:19.185Z,15.57
2023-05-15T17:24:53.017Z,15.59
2023-05-15T17:27:27.689Z,15.54
2023-05-15T17:30:00.960Z,15.51
2023-05-15T17:32:34.734Z,15.55
2023-05-15T17:35:09.128Z,15.49
2023-05-15T17:37:42.580Z,15.46
2023-05-15T17:40:15.536Z,15.53
2023-05-15T17:42:49.740Z,15.49
2023-05-15T17:45:22.686Z,15.40
2023-05-15T17:48:02.763Z,15.39
2023-05-15T17:50:38.994Z,15.39
2023-05-15T17:53:12.090Z,15.31
2023-05-15T17:55:45.273Z,15.37
2023-05-15T17:58:21.185Z,15.27
2023-05-15T18:00:54.461Z,15.34
2023-05-15T18:03:27.606Z,15.24
2023-05-15T18:06:00.449Z,15.17
2023-05-15T18:08:33.952Z,15.16
2023-05-15T18:11:14.257Z,15.12
2023-05-15T18:13:56.611Z,15.17
2023-05-15T18:16:31.264Z,15.12
2023-05-15T18:19:04.265Z,15.11
2023-05-15T18:21:38.053Z,15.07
2023-05-15T18:24:13.676Z,15.06
2023-05-15T18:26:46.699Z,15.03
2023-05-15T18:29:21.146Z,15.03
2023-05-15T18:31:54.215Z,14.93
2023-05-15T18:34:27.109Z,15.01
2023-05-15T18:37:02.644Z,14.97
2023-05-15T18:39:38.919Z,14.97
2023-05-15T18:42:11.941Z,14.96
2023-05-15T18:44:47.122Z,14.99
2023-05-15T18:47:20.280Z,14.95
2023-05-15T18:49:53.134Z,14.93
2023-05-15T18:52:27.018Z,14.89
2023-05-15T18:55:01.319Z,14.87
2023-05-15T18:57:34.225Z,14.93
2023-05-15T19:00:09.703Z,14.97
2023-05-15T19:02:42.723Z,14.90
2023-05-15T19:05:16.108Z,14.81
2023-05-15T19:07:50.403Z,14.78
2023-05-15T19:10:23.195Z,14.83
2023-05-15T19:12:56.136Z,14.74
2023-05-15T19:15:30.369Z,14.74
2023-05-15T19:18:03.658Z,14.73
2023-05-15T19:20:36.579Z,14.67
2023-05-15T19:23:09.835Z,14.75
2023-05-15T19:25:42.667Z,14.64
2023-05-15T19:28:15.540Z,14.60
2023-05-15T19:30:49.966Z,14.58
2023-05-15T19:33:23.643Z,14.61
2023-05-15T19:35:56.853Z,14.58
2023-05-15T19:38:29.860Z,14.53
2023-05-15T19:41:03.681Z,14.48
2023-05-15T19:43:39.102Z,14.46
2023-05-15T19:46:13.705Z,14.47
2023-05-15T19:48:47.249Z,14.44
2023-05-15T19:51:20.405Z,14.44
2023-05-15T19:53:53.306Z,14.41
2023-05-15T19:56:26.910Z,14.43
2023-05-15T19:59:00.494Z,14.40
2023-05-15T20:01:34.853Z,14.39
2023-05-15T20:04:07.965Z,14.33
2023-05-15T20:06:41.011Z,14.41
2023-05-15T20:09:15.730Z,14.31
2023-05-15T20:11:48.863Z,14.31
2023-05-15T20:14:21.976Z,14.21
2023-05-15T20:16:56.677Z,14.20
2023-05-15T20:19:31.553Z,14.17
2023-05-15T20:22:04.506Z,14.16
2023-05-15T20:24:37.882Z,14.10
2023-05-15T20:27:11.182Z,14.10
2023-05-15T20:29:45.481Z,14.12
2023-05-15T20:32:19.886Z,14.15
2023-05-15T20:34:53.948Z,14.07
2023-05-15T20:37:27.327Z,14.05
2023-05-15T20:40:00.870Z,14.13
2023-05-15T20:42:35.802Z,14.07
2023-05-15T20:45:09.272Z,14.13
2023-05-15T20:47:43.615Z,14.02
2023-05-15T20:50:17.016Z,14.08
2023-05-15T20:52:49.969Z,14.04
2023-05-15T20:55:22.798Z,14.03
2023-05-15T20:57:55.600Z,13.96
2023-05-15T21:00:28.659Z,13.96
2023-05-15T21:03:03.180Z,13.96
2023-05-15T21:05:36.135Z,13.95
2023-05-15T21:08:08.836Z,13.93
2023-05-15T21:10:41.967Z,13.94
2023-05-15T21:13:14.826Z,13.94
2023-05-15T21:15:48.112Z,13.89
2023-05-15T21:18:24.293Z,13.83
2023-05-15T21:20:59.574Z,13.86
2023-05-15T21:23:32.409Z,13.88
2023-05-15T21:26:05.235Z,13.86
2023-05-15T21:28:37.995Z,13.86
2023-05-15T21:31:11.965Z,13.84
2023-05-15T21:33:48.269Z,13.82
2023-05-15T21:36:22.950Z,13.77
2023-05-15T21:38:55.662Z,13.78
2023-05-15T21:41:28.568Z,13.76
2023-05-15T21:44:01.203Z,13.71
2023-05-15T21:46:34.274Z,13.70
2023-05-15T21:49:08.593Z,13.63
2023-05-15T21:51:41.384Z,13.70
2023-05-15T21:54:14.323Z,13.67
2023-05-15T21:56:47.054Z,13.63
2023-05-15T21:59:19.795Z,13.61
2023-05-15T22:01:52.751Z,13.59
2023-05-15T22:04:28.679Z,13.60
2023-05-15T22:07:01.917Z,13.54
2023-05-15T22:09:34.955Z,13.58
2023-05-15T22:12:08.461Z,13.53
2023-05-15T22:14:54.472Z,13.47
2023-05-15T22:17:31.359Z,13.48
2023-05-15T22:20:11.267Z,13.52
2023-05-15T22:22:44.335Z,13.52
2023-05-15T22:25:17.091Z,13.48
2023-05-15T22:27:50.226Z,13.49
2023-05-15T22:30:23.072Z,13.50
2023-05-15T22:32:55.776Z,13.43
2023-05-15T22:35:29.994Z,13.46
2023-05-15T22:38:02.750Z,13.41
2023-05-15T22:40:35.525Z,13.37
2023-05-15T22:43:08.392Z,13.32
2023-05-15T22:45:41.397Z,13.40
2023-05-15T22:48:15.798Z,13.31
2023-05-15T22:50:52.131Z,13.33
2023-05-15T22:53:24.905Z,13.32
2023-05-15T22:55:57.703Z,13.26
2023-05-15T22:58:30.515Z,13.37
2023-05-15T23:01:04.214Z,13.32
2023-05-15T23:03:37.136Z,13.33
2023-05-15T23:06:11.292Z,13.28
2023-05-15T23:08:44.944Z,13.32
2023-05-15T23:11:20.444Z,13.17
2023-05-15T23:13:53.435Z,13.17
2023-05-15T23:16:26.844Z,13.16
2023-05-15T23:18:59.787Z,13.19
2023-05-15T23:21:34.548Z,13.17
2023-05-15T23:24:07.710Z,13.10
2023-05-15T23:26:41.576Z,13.04
2023-05-15T23:29:14.756Z,13.07
2023-05-15T23:31:47.750Z,13.04
2023-05-15T23:34:20.553Z,13.08
2023-05-15T23:36:54.703Z,13.00
2023-05-15T23:39:27.562Z,13.05
2023-05-15T23:42:00.981Z,13.08
2023-05-15T23:44:33.710Z,13.00
2023-05-15T23:47:07.138Z,12.97
2023-05-15T23:49:40.292Z,13.00
2023-05-15T23:52:14.483Z,12.99
2023-05-15T23:54:47.314Z,12.98
2023-05-15T23:57:20.111Z,12.95
2023-05-15T23:59:53.015Z,12.92
